createdAt,value
2022-10-17T00:00:53.005Z,6.88
2022-10-17T00:04:55.849Z,6.75
2022-10-17T00:08:58.766Z,6.30
2022-10-17T00:13:02.987Z,6.20
2022-10-17T00:17:06.180Z,7.70
2022-10-17T00:21:16.739Z,6.97
2022-10-17T00:25:20.314Z,6.47
2022-10-17T00:29:24.526Z,6.80
2022-10-17T00:33:27.569Z,8.88
2022-10-17T00:37:31.856Z,8.52
2022-10-17T00:41:35.474Z,9.10
2022-10-17T00:45:42.886Z,7.82
2022-10-17T00:49:49.355Z,6.75
2022-10-17T00:53:52.692Z,6.38
2022-10-17T00:57:55.990Z,7.47
2022-10-17T01:02:03.903Z,6.95
2022-10-17T01:06:06.876Z,7.10
2022-10-17T01:10:11.656Z,6.75
2022-10-17T01:14:24.787Z,6.20
2022-10-17T01:18:42.722Z,6.13
2022-10-17T01:22:51.174Z,6.05
2022-10-17T01:27:10.214Z,6.32
2022-10-17T01:31:16.688Z,6.50
2022-10-17T01:35:26.726Z,5.72
2022-10-17T01:39:38.453Z,5.50
2022-10-17T01:43:48.130Z,5.85
2022-10-17T01:47:54.256Z,5.68
2022-10-17T01:52:01.871Z,5.53
2022-10-17T01:56:07.970Z,5.90
2022-10-17T02:00:15.462Z,5.50
2022-10-17T02:04:19.796Z,5.40
2022-10-17T02:08:42.886Z,7.40
2022-10-17T02:12:52.939Z,5.72
2022-10-17T02:17:05.463Z,7.40
2022-10-17T02:21:14.489Z,6.45
2022-10-17T02:25:30.393Z,5.97
2022-10-17T02:29:38.659Z,7.05
2022-10-17T02:33:46.269Z,5.15
2022-10-17T02:37:52.767Z,6.68
2022-10-17T02:42:01.214Z,4.78
2022-10-17T02:46:04.489Z,5.57
2022-10-17T02:50:08.153Z,4.30
2022-10-17T02:54:21.175Z,7.78
2022-10-17T02:58:29.092Z,6.38
2022-10-17T03:02:40.578Z,5.05
2022-10-17T03:07:29.760Z,5.57
2022-10-17T03:12:04.979Z,5.18
2022-10-17T03:16:36.931Z,5.22
2022-10-17T03:20:43.948Z,6.18
2022-10-17T03:24:46.830Z,6.93
2022-10-17T03:28:53.699Z,9.02
2022-10-17T03:32:59.099Z,6.28
2022-10-17T03:37:03.125Z,5.60
2022-10-17T03:41:08.768Z,6.78
2022-10-17T03:45:14.640Z,4.38
2022-10-17T03:49:18.333Z,5.53
2022-10-17T03:53:21.483Z,6.38
2022-10-17T03:57:24.744Z,4.57
2022-10-17T04:01:29.918Z,5.22
2022-10-17T04:05:32.862Z,5.22
2022-10-17T04:09:35.834Z,5.03
2022-10-17T04:13:47.206Z,5.57
2022-10-17T04:17:51.447Z,6.63
2022-10-17T04:21:54.329Z,8.38
2022-10-17T04:25:58.316Z,5.60
2022-10-17T04:30:01.901Z,6.72
2022-10-17T04:34:08.943Z,4.25
2022-10-17T04:38:12.193Z,7.55
2022-10-17T04:42:15.370Z,6.00
2022-10-17T04:46:18.585Z,5.35
2022-10-17T04:50:23.863Z,7.05
2022-10-17T04:54:46.614Z,5.07
2022-10-17T04:58:50.642Z,7.43
2022-10-17T05:02:54.983Z,8.88
2022-10-17T05:06:59.303Z,6.45
2022-10-17T05:11:18.966Z,8.82
2022-10-17T05:15:21.878Z,7.88
2022-10-17T05:19:24.968Z,6.40
2022-10-17T05:23:30.580Z,9.48
2022-10-17T05:27:33.956Z,5.57
2022-10-17T05:31:37.651Z,5.65
2022-10-17T05:35:42.993Z,6.90
2022-10-17T05:39:50.687Z,5.50
2022-10-17T05:43:55.093Z,9.38
2022-10-17T05:48:08.958Z,5.10
2022-10-17T05:52:12.036Z,4.43
2022-10-17T05:56:30.970Z,6.60
2022-10-17T06:00:34.131Z,8.45
2022-10-17T06:04:37.875Z,4.95
2022-10-17T06:08:40.860Z,9.23
2022-10-17T06:12:47.716Z,4.60
2022-10-17T06:16:51.436Z,5.97
2022-10-17T06:20:54.527Z,6.53
2022-10-17T06:24:57.657Z,8.30
2022-10-17T06:29:02.014Z,6.95
2022-10-17T06:33:10.823Z,4.28
2022-10-17T06:37:13.670Z,6.15
2022-10-17T06:41:19.245Z,5.78
2022-10-17T06:45:23.462Z,10.00
2022-10-17T06:49:48.979Z,5.10
2022-10-17T06:54:00.646Z,5.93
2022-10-17T06:58:42.137Z,7.13
2022-10-17T07:02:59.917Z,4.53
2022-10-17T07:07:03.361Z,7.28
2022-10-17T07:11:11.617Z,5.78
2022-10-17T07:15:14.628Z,4.28
2022-10-17T07:19:18.819Z,4.78
2022-10-17T07:23:21.680Z,5.40
2022-10-17T07:27:24.711Z,5.32
2022-10-17T07:31:27.948Z,5.07
2022-10-17T07:35:32.137Z,4.20
2022-10-17T07:39:36.366Z,6.00
2022-10-17T07:43:41.609Z,4.88
2022-10-17T07:47:44.715Z,5.07
2022-10-17T07:51:52.543Z,5.05
2022-10-17T07:55:55.483Z,4.18
2022-10-17T07:59:58.295Z,4.93
2022-10-17T08:04:01.190Z,4.07
2022-10-17T08:08:05.659Z,5.90
2022-10-17T08:12:08.491Z,4.32
2022-10-17T08:16:13.829Z,5.65
2022-10-17T08:20:16.893Z,4.30
2022-10-17T08:24:21.182Z,4.93
2022-10-17T08:28:24.003Z,5.63
2022-10-17T08:32:29.057Z,5.82
2022-10-17T08:36:32.053Z,6.43
2022-10-17T08:40:38.234Z,5.45
2022-10-17T08:44:50.219Z,6.60
2022-10-17T08:48:53.305Z,5.10
2022-10-17T08:53:02.809Z,4.80
2022-10-17T08:57:12.763Z,4.93
2022-10-17T09:01:30.019Z,6.03
2022-10-17T09:05:42.326Z,13.27
2022-10-17T09:09:58.659Z,9.52
2022-10-17T09:14:15.489Z,5.40
2022-10-17T09:18:22.195Z,4.68
2022-10-17T09:22:28.257Z,5.43
2022-10-17T09:26:31.539Z,5.35
2022-10-17T09:30:46.223Z,6.05
2022-10-17T09:34:49.314Z,5.63
2022-10-17T09:38:54.589Z,4.57
2022-10-17T09:42:57.450Z,5.72
2022-10-17T09:47:16.257Z,6.35
2022-10-17T09:51:25.856Z,3.30
2022-10-17T09:55:38.431Z,4.97
2022-10-17T09:59:44.863Z,5.00
2022-10-17T10:03:49.401Z,5.22
2022-10-17T10:08:04.208Z,6.25
2022-10-17T10:12:18.780Z,4.63
2022-10-17T10:16:25.262Z,4.97
2022-10-17T10:20:35.973Z,6.07
2022-10-17T10:24:38.786Z,6.05
2022-10-17T10:28:42.189Z,3.72
2022-10-17T10:32:47.281Z,5.05
2022-10-17T10:36:59.033Z,5.82
2022-10-17T10:41:07.320Z,7.20
2022-10-17T10:45:42.822Z,3.90
2022-10-17T10:49:41.474Z,5.57
2022-10-17T10:53:49.370Z,6.05
2022-10-17T10:57:56.000Z,4.30
2022-10-17T11:02:03.202Z,8.43
2022-10-17T11:06:14.348Z,6.25
2022-10-17T11:10:26.171Z,6.03
2022-10-17T11:14:39.718Z,4.40
2022-10-17T11:18:48.488Z,3.33
2022-10-17T11:22:57.465Z,4.03
2022-10-17T11:27:04.967Z,5.15
2022-10-17T11:31:12.936Z,5.68
2022-10-17T11:35:22.069Z,5.28
2022-10-17T11:39:32.231Z,9.52
2022-10-17T11:43:41.002Z,5.88
2022-10-17T11:47:47.803Z,9.15
2022-10-17T11:52:03.132Z,7.00
2022-10-17T11:56:07.218Z,7.22
2022-10-17T12:00:31.376Z,5.43
2022-10-17T12:04:49.549Z,5.32
2022-10-17T12:08:58.631Z,6.32
2022-10-17T12:13:35.754Z,6.85
2022-10-17T12:17:41.687Z,6.55
2022-10-17T12:21:56.293Z,7.72
2022-10-17T12:26:04.764Z,5.63
2022-10-17T12:30:18.769Z,6.28
2022-10-17T12:34:24.810Z,6.30
2022-10-17T12:38:29.086Z,6.80
2022-10-17T12:42:49.737Z,6.75
2022-10-17T12:46:53.063Z,7.55
2022-10-17T12:55:29.892Z,8.18
2022-10-17T12:59:33.870Z,5.47
2022-10-17T13:03:44.522Z,4.47
2022-10-17T13:07:50.431Z,7.65
2022-10-17T13:11:54.501Z,8.13
2022-10-17T13:15:57.270Z,7.38
2022-10-17T13:20:00.190Z,6.40
2022-10-17T13:24:21.144Z,6.72
2022-10-17T13:28:24.002Z,6.20
2022-10-17T13:32:35.852Z,6.90
2022-10-17T13:36:38.703Z,6.07
2022-10-17T13:40:49.958Z,4.38
2022-10-17T13:44:53.613Z,7.75
2022-10-17T13:48:57.657Z,4.97
2022-10-17T13:53:18.230Z,4.97
2022-10-17T13:57:25.610Z,5.15
2022-10-17T14:01:29.970Z,9.48
2022-10-17T14:05:34.557Z,4.45
2022-10-17T14:09:37.592Z,10.80
2022-10-17T14:13:42.484Z,6.57
2022-10-17T14:17:46.757Z,5.35
2022-10-17T14:21:50.454Z,6.97
2022-10-17T14:26:06.965Z,8.00
2022-10-17T14:35:16.617Z,6.07
2022-10-17T14:39:25.688Z,3.80
2022-10-17T14:43:31.796Z,8.10
2022-10-17T14:47:43.645Z,6.00
2022-10-17T14:52:20.390Z,7.53
2022-10-17T14:56:25.817Z,5.15
2022-10-17T15:00:29.389Z,6.00
2022-10-17T15:04:33.544Z,5.90
2022-10-17T15:08:36.435Z,11.05
2022-10-17T15:12:43.603Z,4.85
2022-10-17T15:16:50.794Z,6.45
2022-10-17T15:21:04.643Z,7.43
2022-10-17T15:25:15.571Z,5.45
2022-10-17T15:29:21.443Z,7.03
2022-10-17T15:33:24.300Z,9.45
2022-10-17T15:37:49.382Z,11.00
2022-10-17T15:41:52.276Z,9.50
2022-10-17T15:45:55.311Z,4.85
2022-10-17T15:49:58.577Z,5.95
2022-10-17T15:54:03.075Z,8.07
2022-10-17T15:58:06.019Z,9.85
2022-10-17T16:02:14.760Z,5.53
2022-10-17T16:06:19.214Z,8.68
2022-10-17T16:10:26.482Z,7.47
2022-10-17T16:14:29.458Z,7.68
2022-10-17T16:18:32.401Z,6.80
2022-10-17T16:22:36.895Z,4.35
2022-10-17T16:26:42.270Z,8.55
2022-10-17T16:30:46.272Z,4.50
2022-10-17T16:34:49.181Z,8.65
2022-10-17T16:38:54.024Z,6.60
2022-10-17T16:42:58.174Z,6.80
2022-10-17T16:47:01.318Z,4.25
2022-10-17T16:51:04.171Z,4.00
2022-10-17T16:55:08.649Z,5.53
2022-10-17T16:59:13.301Z,4.03
2022-10-17T17:03:16.117Z,7.63
2022-10-17T17:07:19.858Z,6.57
2022-10-17T17:11:24.866Z,6.10
2022-10-17T17:15:29.027Z,7.65
2022-10-17T17:19:31.973Z,7.80
2022-10-17T17:23:36.165Z,7.70
2022-10-17T17:27:38.934Z,5.70
2022-10-17T17:31:43.257Z,10.15
2022-10-17T17:35:46.184Z,7.72
2022-10-17T17:39:48.950Z,5.95
2022-10-17T17:43:52.359Z,9.20
2022-10-17T17:47:56.812Z,8.32
2022-10-17T17:51:59.663Z,7.82
2022-10-17T17:56:03.513Z,7.00
2022-10-17T18:00:07.699Z,7.57
2022-10-17T18:04:12.385Z,7.60
2022-10-17T18:08:15.205Z,10.25
2022-10-17T18:12:18.441Z,7.97
2022-10-17T18:16:21.347Z,8.38
2022-10-17T18:20:25.547Z,11.65
2022-10-17T18:24:28.452Z,6.30
2022-10-17T18:28:31.459Z,7.38
2022-10-17T18:32:34.545Z,8.70
2022-10-17T18:36:38.868Z,8.10
2022-10-17T18:40:41.829Z,8.48
2022-10-17T18:44:44.983Z,10.90
2022-10-17T18:48:49.405Z,10.32
2022-10-17T18:52:53.731Z,11.73
2022-10-17T18:56:57.027Z,8.02
2022-10-17T19:01:04.421Z,9.43
2022-10-17T19:05:08.828Z,9.93
2022-10-17T19:09:15.434Z,8.43
2022-10-17T19:13:21.532Z,10.10
2022-10-17T19:17:24.709Z,8.35
2022-10-17T19:21:28.124Z,10.65
2022-10-17T19:25:34.011Z,9.70
2022-10-17T19:29:36.927Z,10.82
2022-10-17T19:33:39.730Z,10.75
2022-10-17T19:37:42.554Z,9.77
2022-10-17T19:41:48.851Z,15.48
2022-10-17T19:45:56.483Z,10.60
2022-10-17T19:49:59.307Z,10.57
2022-10-17T19:54:02.666Z,11.57
2022-10-17T19:58:06.840Z,10.23
2022-10-17T20:02:13.391Z,11.45
2022-10-17T20:06:17.951Z,11.93
2022-10-17T20:10:21.251Z,16.17
2022-10-17T20:14:25.499Z,13.88
2022-10-17T20:18:28.933Z,14.10
2022-10-17T20:22:32.453Z,12.88
2022-10-17T20:26:39.043Z,14.77
2022-10-17T20:30:47.878Z,14.40
2022-10-17T20:34:50.669Z,16.52
2022-10-17T20:38:54.823Z,14.63
2022-10-17T20:42:57.713Z,16.92
2022-10-17T20:47:02.851Z,16.02
2022-10-17T20:51:08.726Z,15.75
2022-10-17T20:55:12.192Z,15.80
2022-10-17T20:59:16.895Z,17.77
2022-10-17T21:03:21.053Z,15.90
2022-10-17T21:07:25.500Z,18.15
2022-10-17T21:11:29.460Z,19.02
2022-10-17T21:15:38.553Z,17.10
2022-10-17T21:19:43.135Z,15.07
2022-10-17T21:23:47.486Z,18.63
2022-10-17T21:27:52.941Z,19.58
2022-10-17T21:31:56.159Z,22.00
2022-10-17T21:36:00.349Z,17.17
2022-10-17T21:40:03.253Z,18.02
2022-10-17T21:44:08.105Z,18.00
2022-10-17T21:48:13.084Z,18.20
2022-10-17T21:52:17.746Z,17.33
2022-10-17T21:56:21.948Z,18.88
2022-10-17T22:00:24.737Z,22.45
2022-10-17T22:04:27.577Z,20.10
2022-10-17T22:08:32.345Z,17.55
2022-10-17T22:12:35.161Z,17.10
2022-10-17T22:16:40.071Z,20.98
2022-10-17T22:20:42.913Z,20.30
2022-10-17T22:24:47.033Z,20.73
2022-10-17T22:28:49.881Z,15.68
2022-10-17T22:32:52.706Z,18.17
2022-10-17T22:36:55.539Z,15.55
2022-10-17T22:40:59.704Z,13.40
2022-10-17T22:45:03.201Z,13.98
2022-10-17T22:49:06.039Z,13.48
2022-10-17T22:53:08.890Z,14.13
2022-10-17T22:57:13.327Z,11.30
2022-10-17T23:01:18.983Z,12.27
2022-10-17T23:05:21.958Z,10.82
2022-10-17T23:09:24.805Z,10.55
2022-10-17T23:13:29.062Z,8.82
2022-10-17T23:17:31.858Z,8.63
2022-10-17T23:21:34.651Z,9.02
2022-10-17T23:25:37.474Z,6.05
2022-10-17T23:29:41.614Z,6.55
2022-10-17T23:33:45.693Z,7.78
2022-10-17T23:37:48.494Z,11.23
2022-10-17T23:41:51.294Z,6.53
2022-10-17T23:45:55.420Z,8.02
2022-10-17T23:49:58.548Z,6.95
2022-10-17T23:54:01.352Z,8.00
2022-10-17T23:58:04.222Z,7.20
